sensor_id;sensor_type;location;lat;lon;timestamp;P1;durP1;ratioP1;P2;durP2;ratioP2
36663;SDS011;53333;51.976;20.144;2023-04-24T00:02:06;27.63;;;13.55;;
36663;SDS011;53333;51.976;20.144;2023-04-24T00:04:41;26.13;;;14.85;;
36663;SDS011;53333;51.976;20.144;2023-04-24T00:07:16;22.70;;;14.35;;
36663;SDS011;53333;51.976;20.144;2023-04-24T00:09:49;21.33;;;13.77;;
36663;SDS011;53333;51.976;20.144;2023-04-24T00:12:21;23.80;;;12.90;;
36663;SDS011;53333;51.976;20.144;2023-04-24T00:14:54;22.17;;;14.27;;
36663;SDS011;53333;51.976;20.144;2023-04-24T00:17:29;22.95;;;14.35;;
36663;SDS011;53333;51.976;20.144;2023-04-24T00:20:02;21.65;;;13.82;;
36663;SDS011;53333;51.976;20.144;2023-04-24T00:22:37;20.83;;;13.88;;
36663;SDS011;53333;51.976;20.144;2023-04-24T00:25:10;21.77;;;13.48;;
36663;SDS011;53333;51.976;20.144;2023-04-24T00:27:42;25.58;;;15.18;;
36663;SDS011;53333;51.976;20.144;2023-04-24T00:30:15;18.03;;;13.10;;
36663;SDS011;53333;51.976;20.144;2023-04-24T00:32:50;23.48;;;14.68;;
36663;SDS011;53333;51.976;20.144;2023-04-24T00:35:23;23.17;;;15.27;;
36663;SDS011;53333;51.976;20.144;2023-04-24T00:37:55;22.50;;;15.43;;
36663;SDS011;53333;51.976;20.144;2023-04-24T00:40:28;21.60;;;14.77;;
36663;SDS011;53333;51.976;20.144;2023-04-24T00:43:02;24.77;;;15.23;;
36663;SDS011;53333;51.976;20.144;2023-04-24T00:45:35;26.58;;;16.77;;
36663;SDS011;53333;51.976;20.144;2023-04-24T00:48:09;29.58;;;18.40;;
36663;SDS011;53333;51.976;20.144;2023-04-24T00:50:44;26.30;;;16.45;;
36663;SDS011;53333;51.976;20.144;2023-04-24T00:53:18;29.15;;;18.10;;
36663;SDS011;53333;51.976;20.144;2023-04-24T00:55:51;31.40;;;19.15;;
36663;SDS011;53333;51.976;20.144;2023-04-24T00:58:24;32.70;;;18.13;;
36663;SDS011;53333;51.976;20.144;2023-04-24T01:03:34;28.42;;;16.27;;
36663;SDS011;53333;51.976;20.144;2023-04-24T01:06:08;29.75;;;16.90;;
36663;SDS011;53333;51.976;20.144;2023-04-24T01:08:42;27.42;;;15.85;;
36663;SDS011;53333;51.976;20.144;2023-04-24T01:11:18;28.75;;;16.98;;
36663;SDS011;53333;51.976;20.144;2023-04-24T01:13:51;23.35;;;15.80;;
36663;SDS011;53333;51.976;20.144;2023-04-24T01:16:24;25.55;;;16.10;;
36663;SDS011;53333;51.976;20.144;2023-04-24T01:18:59;25.98;;;16.48;;
36663;SDS011;53333;51.976;20.144;2023-04-24T01:21:32;24.65;;;16.83;;
36663;SDS011;53333;51.976;20.144;2023-04-24T01:24:10;25.10;;;15.80;;
36663;SDS011;53333;51.976;20.144;2023-04-24T01:26:43;32.15;;;17.25;;
36663;SDS011;53333;51.976;20.144;2023-04-24T01:29:16;24.15;;;16.70;;
36663;SDS011;53333;51.976;20.144;2023-04-24T01:31:49;26.15;;;16.25;;
36663;SDS011;53333;51.976;20.144;2023-04-24T01:34:23;25.60;;;16.92;;
36663;SDS011;53333;51.976;20.144;2023-04-24T01:36:56;22.00;;;14.95;;
36663;SDS011;53333;51.976;20.144;2023-04-24T01:39:30;22.08;;;15.85;;
36663;SDS011;53333;51.976;20.144;2023-04-24T01:42:05;29.15;;;16.92;;
36663;SDS011;53333;51.976;20.144;2023-04-24T01:44:38;21.83;;;15.50;;
36663;SDS011;53333;51.976;20.144;2023-04-24T01:47:11;22.83;;;15.13;;
36663;SDS011;53333;51.976;20.144;2023-04-24T01:49:44;27.93;;;16.50;;
36663;SDS011;53333;51.976;20.144;2023-04-24T01:52:18;20.92;;;14.68;;
36663;SDS011;53333;51.976;20.144;2023-04-24T01:54:53;29.23;;;15.25;;
36663;SDS011;53333;51.976;20.144;2023-04-24T01:57:27;22.75;;;14.05;;
36663;SDS011;53333;51.976;20.144;2023-04-24T02:00:01;27.05;;;15.68;;
36663;SDS011;53333;51.976;20.144;2023-04-24T02:02:43;21.60;;;14.93;;
36663;SDS011;53333;51.976;20.144;2023-04-24T02:05:19;25.17;;;14.63;;
36663;SDS011;53333;51.976;20.144;2023-04-24T02:07:51;19.45;;;14.70;;
36663;SDS011;53333;51.976;20.144;2023-04-24T02:10:26;25.10;;;15.80;;
36663;SDS011;53333;51.976;20.144;2023-04-24T02:12:59;21.55;;;14.77;;
36663;SDS011;53333;51.976;20.144;2023-04-24T02:15:31;23.90;;;15.23;;
36663;SDS011;53333;51.976;20.144;2023-04-24T02:18:04;26.17;;;15.70;;
36663;SDS011;53333;51.976;20.144;2023-04-24T02:20:38;21.00;;;15.00;;
36663;SDS011;53333;51.976;20.144;2023-04-24T02:23:11;21.63;;;14.80;;
36663;SDS011;53333;51.976;20.144;2023-04-24T02:25:46;21.27;;;14.70;;
36663;SDS011;53333;51.976;20.144;2023-04-24T02:28:21;21.63;;;14.60;;
36663;SDS011;53333;51.976;20.144;2023-04-24T02:30:54;23.83;;;14.82;;
36663;SDS011;53333;51.976;20.144;2023-04-24T02:33:27;23.80;;;14.47;;
36663;SDS011;53333;51.976;20.144;2023-04-24T02:36:00;20.60;;;13.50;;
36663;SDS011;53333;51.976;20.144;2023-04-24T02:38:34;39.38;;;16.63;;
36663;SDS011;53333;51.976;20.144;2023-04-24T02:41:08;21.85;;;15.32;;
36663;SDS011;53333;51.976;20.144;2023-04-24T02:43:41;21.98;;;14.80;;
36663;SDS011;53333;51.976;20.144;2023-04-24T02:46:14;21.73;;;14.82;;
36663;SDS011;53333;51.976;20.144;2023-04-24T02:48:48;22.83;;;15.60;;
36663;SDS011;53333;51.976;20.144;2023-04-24T02:51:21;21.60;;;15.52;;
36663;SDS011;53333;51.976;20.144;2023-04-24T02:53:54;22.10;;;14.43;;
36663;SDS011;53333;51.976;20.144;2023-04-24T02:56:29;20.98;;;14.25;;
36663;SDS011;53333;51.976;20.144;2023-04-24T02:59:03;23.15;;;15.18;;
36663;SDS011;53333;51.976;20.144;2023-04-24T03:01:36;19.33;;;13.55;;
36663;SDS011;53333;51.976;20.144;2023-04-24T03:04:09;21.00;;;14.40;;
36663;SDS011;53333;51.976;20.144;2023-04-24T03:06:43;20.85;;;14.20;;
36663;SDS011;53333;51.976;20.144;2023-04-24T03:09:17;22.88;;;14.25;;
36663;SDS011;53333;51.976;20.144;2023-04-24T03:11:52;21.52;;;14.15;;
36663;SDS011;53333;51.976;20.144;2023-04-24T03:14:28;20.00;;;14.07;;
36663;SDS011;53333;51.976;20.144;2023-04-24T03:17:02;24.30;;;14.70;;
36663;SDS011;53333;51.976;20.144;2023-04-24T03:19:35;23.77;;;15.80;;
36663;SDS011;53333;51.976;20.144;2023-04-24T03:22:13;24.42;;;15.60;;
36663;SDS011;53333;51.976;20.144;2023-04-24T03:24:46;26.77;;;16.00;;
36663;SDS011;53333;51.976;20.144;2023-04-24T03:27:23;23.63;;;14.65;;
36663;SDS011;53333;51.976;20.144;2023-04-24T03:30:03;28.45;;;15.23;;
36663;SDS011;53333;51.976;20.144;2023-04-24T03:32:46;22.75;;;15.38;;
36663;SDS011;53333;51.976;20.144;2023-04-24T03:35:24;25.75;;;15.93;;
36663;SDS011;53333;51.976;20.144;2023-04-24T03:40:46;25.98;;;15.05;;
36663;SDS011;53333;51.976;20.144;2023-04-24T03:43:34;26.35;;;15.52;;
36663;SDS011;53333;51.976;20.144;2023-04-24T03:46:08;26.25;;;15.52;;
36663;SDS011;53333;51.976;20.144;2023-04-24T03:48:46;22.20;;;15.85;;
36663;SDS011;53333;51.976;20.144;2023-04-24T03:51:22;22.95;;;15.05;;
36663;SDS011;53333;51.976;20.144;2023-04-24T03:53:58;24.90;;;16.05;;
36663;SDS011;53333;51.976;20.144;2023-04-24T03:56:34;21.58;;;15.18;;
36663;SDS011;53333;51.976;20.144;2023-04-24T03:59:08;25.67;;;15.45;;
36663;SDS011;53333;51.976;20.144;2023-04-24T04:01:42;23.30;;;15.48;;
36663;SDS011;53333;51.976;20.144;2023-04-24T04:04:18;20.98;;;15.02;;
36663;SDS011;53333;51.976;20.144;2023-04-24T04:06:51;26.63;;;15.20;;
36663;SDS011;53333;51.976;20.144;2023-04-24T04:09:25;28.63;;;16.30;;
36663;SDS011;53333;51.976;20.144;2023-04-24T04:11:59;24.55;;;15.48;;
36663;SDS011;53333;51.976;20.144;2023-04-24T04:14:34;25.40;;;16.75;;
36663;SDS011;53333;51.976;20.144;2023-04-24T04:17:07;20.10;;;15.20;;
36663;SDS011;53333;51.976;20.144;2023-04-24T04:19:40;26.13;;;15.55;;
36663;SDS011;53333;51.976;20.144;2023-04-24T04:22:14;25.40;;;15.60;;
36663;SDS011;53333;51.976;20.144;2023-04-24T04:24:50;23.60;;;15.77;;
36663;SDS011;53333;51.976;20.144;2023-04-24T04:27:26;24.42;;;16.20;;
36663;SDS011;53333;51.976;20.144;2023-04-24T04:30:08;22.23;;;14.90;;
36663;SDS011;53333;51.976;20.144;2023-04-24T04:35:43;24.73;;;15.10;;
36663;SDS011;53333;51.976;20.144;2023-04-24T04:38:16;28.67;;;16.17;;
36663;SDS011;53333;51.976;20.144;2023-04-24T04:40:55;22.88;;;16.73;;
36663;SDS011;53333;51.976;20.144;2023-04-24T04:43:32;24.17;;;15.38;;
36663;SDS011;53333;51.976;20.144;2023-04-24T04:46:07;24.42;;;15.23;;
36663;SDS011;53333;51.976;20.144;2023-04-24T04:48:50;22.85;;;14.50;;
36663;SDS011;53333;51.976;20.144;2023-04-24T04:51:23;21.52;;;15.23;;
36663;SDS011;53333;51.976;20.144;2023-04-24T04:53:56;26.58;;;15.60;;
36663;SDS011;53333;51.976;20.144;2023-04-24T04:56:30;23.63;;;15.73;;
36663;SDS011;53333;51.976;20.144;2023-04-24T04:59:04;27.33;;;14.82;;
36663;SDS011;53333;51.976;20.144;2023-04-24T05:01:40;33.15;;;16.50;;
36663;SDS011;53333;51.976;20.144;2023-04-24T05:04:16;24.65;;;14.75;;
36663;SDS011;53333;51.976;20.144;2023-04-24T05:06:49;22.52;;;15.35;;
36663;SDS011;53333;51.976;20.144;2023-04-24T05:09:22;23.13;;;15.50;;
36663;SDS011;53333;51.976;20.144;2023-04-24T05:12:03;28.33;;;16.15;;
36663;SDS011;53333;51.976;20.144;2023-04-24T05:14:40;24.65;;;15.75;;
36663;SDS011;53333;51.976;20.144;2023-04-24T05:17:16;23.95;;;14.95;;
36663;SDS011;53333;51.976;20.144;2023-04-24T05:19:49;23.58;;;15.32;;
36663;SDS011;53333;51.976;20.144;2023-04-24T05:22:22;27.15;;;14.48;;
36663;SDS011;53333;51.976;20.144;2023-04-24T05:27:42;30.20;;;14.00;;
36663;SDS011;53333;51.976;20.144;2023-04-24T05:30:18;28.15;;;14.88;;
36663;SDS011;53333;51.976;20.144;2023-04-24T05:32:53;40.70;;;25.95;;
36663;SDS011;53333;51.976;20.144;2023-04-24T05:35:26;24.50;;;15.65;;
36663;SDS011;53333;51.976;20.144;2023-04-24T05:40:32;22.58;;;12.73;;
36663;SDS011;53333;51.976;20.144;2023-04-24T05:43:05;25.15;;;14.63;;
36663;SDS011;53333;51.976;20.144;2023-04-24T05:45:38;23.75;;;14.23;;
36663;SDS011;53333;51.976;20.144;2023-04-24T05:48:12;26.60;;;14.40;;
36663;SDS011;53333;51.976;20.144;2023-04-24T05:50:47;20.55;;;12.88;;
36663;SDS011;53333;51.976;20.144;2023-04-24T05:55:54;23.08;;;13.13;;
36663;SDS011;53333;51.976;20.144;2023-04-24T05:58:27;20.75;;;12.55;;
36663;SDS011;53333;51.976;20.144;2023-04-24T06:01:00;29.90;;;16.92;;
36663;SDS011;53333;51.976;20.144;2023-04-24T06:03:36;23.77;;;13.35;;
36663;SDS011;53333;51.976;20.144;2023-04-24T06:06:11;24.52;;;13.45;;
36663;SDS011;53333;51.976;20.144;2023-04-24T06:08:44;21.27;;;13.70;;
36663;SDS011;53333;51.976;20.144;2023-04-24T06:11:17;19.27;;;12.02;;
36663;SDS011;53333;51.976;20.144;2023-04-24T06:13:50;24.17;;;11.60;;
36663;SDS011;53333;51.976;20.144;2023-04-24T06:16:55;16.85;;;11.77;;
36663;SDS011;53333;51.976;20.144;2023-04-24T06:19:39;23.52;;;11.48;;
36663;SDS011;53333;51.976;20.144;2023-04-24T06:22:12;22.33;;;12.02;;
36663;SDS011;53333;51.976;20.144;2023-04-24T06:24:45;15.85;;;10.50;;
36663;SDS011;53333;51.976;20.144;2023-04-24T06:27:19;21.17;;;10.43;;
36663;SDS011;53333;51.976;20.144;2023-04-24T06:29:52;16.88;;;11.77;;
36663;SDS011;53333;51.976;20.144;2023-04-24T06:32:26;26.40;;;12.18;;
36663;SDS011;53333;51.976;20.144;2023-04-24T06:35:01;15.27;;;11.20;;
36663;SDS011;53333;51.976;20.144;2023-04-24T06:37:34;16.98;;;11.65;;
36663;SDS011;53333;51.976;20.144;2023-04-24T06:40:07;19.27;;;12.18;;
36663;SDS011;53333;51.976;20.144;2023-04-24T06:42:41;20.42;;;12.57;;
36663;SDS011;53333;51.976;20.144;2023-04-24T06:45:14;19.38;;;12.00;;
36663;SDS011;53333;51.976;20.144;2023-04-24T06:47:46;25.02;;;15.23;;
36663;SDS011;53333;51.976;20.144;2023-04-24T06:50:21;20.63;;;13.82;;
36663;SDS011;53333;51.976;20.144;2023-04-24T06:52:54;19.92;;;12.60;;
36663;SDS011;53333;51.976;20.144;2023-04-24T06:55:27;15.02;;;12.18;;
36663;SDS011;53333;51.976;20.144;2023-04-24T06:58:00;21.35;;;12.60;;
36663;SDS011;53333;51.976;20.144;2023-04-24T07:00:33;26.52;;;13.02;;
36663;SDS011;53333;51.976;20.144;2023-04-24T07:03:06;22.27;;;15.75;;
36663;SDS011;53333;51.976;20.144;2023-04-24T07:05:40;21.92;;;15.05;;
36663;SDS011;53333;51.976;20.144;2023-04-24T07:08:13;23.75;;;13.98;;
36663;SDS011;53333;51.976;20.144;2023-04-24T07:10:49;25.63;;;14.85;;
36663;SDS011;53333;51.976;20.144;2023-04-24T07:13:22;21.48;;;14.07;;
36663;SDS011;53333;51.976;20.144;2023-04-24T07:15:55;19.20;;;13.05;;
36663;SDS011;53333;51.976;20.144;2023-04-24T07:18:28;20.73;;;12.45;;
36663;SDS011;53333;51.976;20.144;2023-04-24T07:21:03;16.30;;;12.43;;
36663;SDS011;53333;51.976;20.144;2023-04-24T07:23:36;17.05;;;14.07;;
36663;SDS011;53333;51.976;20.144;2023-04-24T07:26:09;18.65;;;14.07;;
36663;SDS011;53333;51.976;20.144;2023-04-24T07:28:42;19.83;;;13.85;;
36663;SDS011;53333;51.976;20.144;2023-04-24T07:31:15;15.80;;;12.63;;
36663;SDS011;53333;51.976;20.144;2023-04-24T07:33:48;22.25;;;14.00;;
36663;SDS011;53333;51.976;20.144;2023-04-24T07:36:23;20.00;;;12.80;;
36663;SDS011;53333;51.976;20.144;2023-04-24T07:38:57;17.10;;;12.25;;
36663;SDS011;53333;51.976;20.144;2023-04-24T07:41:30;19.80;;;11.90;;
36663;SDS011;53333;51.976;20.144;2023-04-24T07:44:03;18.77;;;11.30;;
36663;SDS011;53333;51.976;20.144;2023-04-24T07:46:36;21.67;;;11.90;;
36663;SDS011;53333;51.976;20.144;2023-04-24T07:49:09;15.73;;;10.10;;
36663;SDS011;53333;51.976;20.144;2023-04-24T07:51:46;14.70;;;10.35;;
36663;SDS011;53333;51.976;20.144;2023-04-24T07:54:19;16.27;;;9.50;;
36663;SDS011;53333;51.976;20.144;2023-04-24T07:56:52;11.90;;;8.60;;
36663;SDS011;53333;51.976;20.144;2023-04-24T07:59:25;8.82;;;7.93;;
36663;SDS011;53333;51.976;20.144;2023-04-24T08:01:58;10.27;;;8.32;;
36663;SDS011;53333;51.976;20.144;2023-04-24T08:04:32;8.73;;;7.20;;
36663;SDS011;53333;51.976;20.144;2023-04-24T08:07:07;11.48;;;7.63;;
36663;SDS011;53333;51.976;20.144;2023-04-24T08:09:40;15.75;;;8.35;;
36663;SDS011;53333;51.976;20.144;2023-04-24T08:14:46;9.73;;;7.20;;
36663;SDS011;53333;51.976;20.144;2023-04-24T08:17:19;9.82;;;7.32;;
36663;SDS011;53333;51.976;20.144;2023-04-24T08:19:52;10.18;;;7.60;;
36663;SDS011;53333;51.976;20.144;2023-04-24T08:22:33;9.45;;;7.45;;
36663;SDS011;53333;51.976;20.144;2023-04-24T08:25:07;11.85;;;7.18;;
36663;SDS011;53333;51.976;20.144;2023-04-24T08:27:40;10.02;;;7.28;;
36663;SDS011;53333;51.976;20.144;2023-04-24T08:32:47;8.30;;;5.97;;
36663;SDS011;53333;51.976;20.144;2023-04-24T08:40:28;13.40;;;7.10;;
36663;SDS011;53333;51.976;20.144;2023-04-24T08:43:02;9.27;;;6.47;;
36663;SDS011;53333;51.976;20.144;2023-04-24T08:45:35;10.90;;;6.45;;
36663;SDS011;53333;51.976;20.144;2023-04-24T08:48:09;10.30;;;6.93;;
36663;SDS011;53333;51.976;20.144;2023-04-24T08:50:58;9.40;;;5.80;;
36663;SDS011;53333;51.976;20.144;2023-04-24T08:53:33;7.75;;;5.82;;
36663;SDS011;53333;51.976;20.144;2023-04-24T08:56:07;9.32;;;5.53;;
36663;SDS011;53333;51.976;20.144;2023-04-24T08:58:41;9.02;;;5.85;;
36663;SDS011;53333;51.976;20.144;2023-04-24T09:01:15;8.55;;;5.68;;
36663;SDS011;53333;51.976;20.144;2023-04-24T09:03:49;9.23;;;6.35;;
36663;SDS011;53333;51.976;20.144;2023-04-24T09:08:57;8.65;;;5.45;;
36663;SDS011;53333;51.976;20.144;2023-04-24T09:11:32;6.30;;;4.88;;
36663;SDS011;53333;51.976;20.144;2023-04-24T09:14:05;7.80;;;5.63;;
36663;SDS011;53333;51.976;20.144;2023-04-24T09:16:40;7.13;;;5.80;;
36663;SDS011;53333;51.976;20.144;2023-04-24T09:19:14;5.95;;;5.10;;
36663;SDS011;53333;51.976;20.144;2023-04-24T09:24:21;3.90;;;3.50;;
36663;SDS011;53333;51.976;20.144;2023-04-24T09:26:56;5.60;;;3.92;;
36663;SDS011;53333;51.976;20.144;2023-04-24T09:29:30;6.10;;;4.55;;
36663;SDS011;53333;51.976;20.144;2023-04-24T09:32:17;7.18;;;4.47;;
36663;SDS011;53333;51.976;20.144;2023-04-24T09:35:04;5.15;;;3.95;;
36663;SDS011;53333;51.976;20.144;2023-04-24T09:37:39;5.15;;;3.90;;
36663;SDS011;53333;51.976;20.144;2023-04-24T09:40:16;8.63;;;4.35;;
36663;SDS011;53333;51.976;20.144;2023-04-24T09:42:52;6.70;;;4.30;;
36663;SDS011;53333;51.976;20.144;2023-04-24T09:45:27;5.90;;;4.03;;
36663;SDS011;53333;51.976;20.144;2023-04-24T09:48:00;6.82;;;4.72;;
36663;SDS011;53333;51.976;20.144;2023-04-24T09:50:34;7.60;;;4.88;;
36663;SDS011;53333;51.976;20.144;2023-04-24T09:53:07;6.00;;;4.93;;
36663;SDS011;53333;51.976;20.144;2023-04-24T09:55:42;6.93;;;5.70;;
36663;SDS011;53333;51.976;20.144;2023-04-24T09:58:24;17.45;;;15.50;;
36663;SDS011;53333;51.976;20.144;2023-04-24T10:00:58;6.82;;;4.70;;
36663;SDS011;53333;51.976;20.144;2023-04-24T10:03:31;15.68;;;5.50;;
36663;SDS011;53333;51.976;20.144;2023-04-24T10:06:05;8.93;;;4.90;;
36663;SDS011;53333;51.976;20.144;2023-04-24T10:08:40;6.13;;;5.40;;
36663;SDS011;53333;51.976;20.144;2023-04-24T10:11:15;9.60;;;5.88;;
36663;SDS011;53333;51.976;20.144;2023-04-24T10:13:48;7.93;;;5.93;;
36663;SDS011;53333;51.976;20.144;2023-04-24T10:16:21;8.40;;;5.00;;
36663;SDS011;53333;51.976;20.144;2023-04-24T10:18:55;5.90;;;4.75;;
36663;SDS011;53333;51.976;20.144;2023-04-24T10:21:31;8.23;;;5.07;;
36663;SDS011;53333;51.976;20.144;2023-04-24T10:24:05;9.93;;;6.50;;
36663;SDS011;53333;51.976;20.144;2023-04-24T10:26:40;9.05;;;5.93;;
36663;SDS011;53333;51.976;20.144;2023-04-24T10:29:14;8.07;;;5.95;;
36663;SDS011;53333;51.976;20.144;2023-04-24T10:31:49;7.10;;;5.30;;
36663;SDS011;53333;51.976;20.144;2023-04-24T10:34:22;5.60;;;4.50;;
36663;SDS011;53333;51.976;20.144;2023-04-24T10:36:56;7.05;;;4.90;;
36663;SDS011;53333;51.976;20.144;2023-04-24T10:39:29;7.40;;;4.78;;
36663;SDS011;53333;51.976;20.144;2023-04-24T10:42:15;6.25;;;4.60;;
36663;SDS011;53333;51.976;20.144;2023-04-24T10:44:48;5.13;;;4.63;;
36663;SDS011;53333;51.976;20.144;2023-04-24T10:47:21;7.85;;;4.80;;
36663;SDS011;53333;51.976;20.144;2023-04-24T10:49:54;6.60;;;4.97;;
36663;SDS011;53333;51.976;20.144;2023-04-24T10:52:43;6.93;;;4.95;;
36663;SDS011;53333;51.976;20.144;2023-04-24T10:55:18;5.78;;;4.90;;
36663;SDS011;53333;51.976;20.144;2023-04-24T10:58:13;6.10;;;4.80;;
36663;SDS011;53333;51.976;20.144;2023-04-24T11:00:55;6.70;;;4.80;;
36663;SDS011;53333;51.976;20.144;2023-04-24T11:03:30;5.70;;;4.70;;
36663;SDS011;53333;51.976;20.144;2023-04-24T11:06:06;7.22;;;5.32;;
36663;SDS011;53333;51.976;20.144;2023-04-24T11:08:42;6.35;;;4.95;;
36663;SDS011;53333;51.976;20.144;2023-04-24T11:11:16;7.47;;;4.82;;
36663;SDS011;53333;51.976;20.144;2023-04-24T11:14:03;5.32;;;4.70;;
36663;SDS011;53333;51.976;20.144;2023-04-24T11:16:39;7.00;;;4.75;;
36663;SDS011;53333;51.976;20.144;2023-04-24T11:19:20;5.90;;;4.30;;
36663;SDS011;53333;51.976;20.144;2023-04-24T11:21:57;4.97;;;4.30;;
36663;SDS011;53333;51.976;20.144;2023-04-24T11:24:37;4.72;;;4.13;;
36663;SDS011;53333;51.976;20.144;2023-04-24T11:27:21;7.00;;;4.43;;
36663;SDS011;53333;51.976;20.144;2023-04-24T11:30:00;5.38;;;4.35;;
36663;SDS011;53333;51.976;20.144;2023-04-24T11:32:35;6.57;;;5.20;;
36663;SDS011;53333;51.976;20.144;2023-04-24T11:35:13;6.50;;;4.75;;
36663;SDS011;53333;51.976;20.144;2023-04-24T11:37:48;11.43;;;4.93;;
36663;SDS011;53333;51.976;20.144;2023-04-24T11:40:25;6.82;;;5.63;;
36663;SDS011;53333;51.976;20.144;2023-04-24T11:42:59;6.40;;;5.15;;
36663;SDS011;53333;51.976;20.144;2023-04-24T11:45:34;7.22;;;5.30;;
36663;SDS011;53333;51.976;20.144;2023-04-24T11:48:07;7.85;;;4.80;;
36663;SDS011;53333;51.976;20.144;2023-04-24T11:50:40;11.63;;;5.60;;
36663;SDS011;53333;51.976;20.144;2023-04-24T11:53:19;8.73;;;5.40;;
36663;SDS011;53333;51.976;20.144;2023-04-24T11:55:53;14.13;;;5.65;;
36663;SDS011;53333;51.976;20.144;2023-04-24T11:58:26;11.27;;;5.70;;
36663;SDS011;53333;51.976;20.144;2023-04-24T12:01:00;14.02;;;4.97;;
36663;SDS011;53333;51.976;20.144;2023-04-24T12:03:33;13.20;;;4.85;;
36663;SDS011;53333;51.976;20.144;2023-04-24T12:08:40;17.70;;;5.47;;
36663;SDS011;53333;51.976;20.144;2023-04-24T12:11:14;13.52;;;5.15;;
36663;SDS011;53333;51.976;20.144;2023-04-24T12:13:49;15.38;;;6.15;;
36663;SDS011;53333;51.976;20.144;2023-04-24T12:16:23;9.63;;;5.18;;
36663;SDS011;53333;51.976;20.144;2023-04-24T12:18:58;8.43;;;5.80;;
36663;SDS011;53333;51.976;20.144;2023-04-24T12:21:32;8.30;;;5.18;;
36663;SDS011;53333;51.976;20.144;2023-04-24T12:24:06;6.38;;;4.85;;
36663;SDS011;53333;51.976;20.144;2023-04-24T12:26:41;5.18;;;4.65;;
36663;SDS011;53333;51.976;20.144;2023-04-24T12:29:19;8.13;;;5.38;;
36663;SDS011;53333;51.976;20.144;2023-04-24T12:31:53;6.05;;;4.57;;
36663;SDS011;53333;51.976;20.144;2023-04-24T12:34:26;5.40;;;4.72;;
36663;SDS011;53333;51.976;20.144;2023-04-24T12:37:09;9.07;;;4.05;;
36663;SDS011;53333;51.976;20.144;2023-04-24T12:39:44;4.93;;;4.43;;
36663;SDS011;53333;51.976;20.144;2023-04-24T12:42:30;9.73;;;4.05;;
36663;SDS011;53333;51.976;20.144;2023-04-24T12:45:04;5.40;;;4.03;;
36663;SDS011;53333;51.976;20.144;2023-04-24T12:47:40;6.90;;;4.00;;
36663;SDS011;53333;51.976;20.144;2023-04-24T12:50:14;5.45;;;3.90;;
36663;SDS011;53333;51.976;20.144;2023-04-24T12:52:48;5.18;;;4.65;;
36663;SDS011;53333;51.976;20.144;2023-04-24T12:55:21;13.30;;;8.27;;
36663;SDS011;53333;51.976;20.144;2023-04-24T12:57:53;6.20;;;4.63;;
36663;SDS011;53333;51.976;20.144;2023-04-24T13:00:27;4.97;;;4.47;;
36663;SDS011;53333;51.976;20.144;2023-04-24T13:03:01;4.68;;;4.20;;
36663;SDS011;53333;51.976;20.144;2023-04-24T13:05:35;5.35;;;4.40;;
36663;SDS011;53333;51.976;20.144;2023-04-24T13:08:08;6.20;;;4.70;;
36663;SDS011;53333;51.976;20.144;2023-04-24T13:10:41;7.80;;;5.43;;
36663;SDS011;53333;51.976;20.144;2023-04-24T13:13:14;7.65;;;4.80;;
36663;SDS011;53333;51.976;20.144;2023-04-24T13:15:47;6.07;;;5.10;;
36663;SDS011;53333;51.976;20.144;2023-04-24T13:18:21;6.88;;;4.78;;
36663;SDS011;53333;51.976;20.144;2023-04-24T13:20:55;8.05;;;4.60;;
36663;SDS011;53333;51.976;20.144;2023-04-24T13:23:27;4.63;;;4.22;;
36663;SDS011;53333;51.976;20.144;2023-04-24T13:26:00;7.32;;;4.85;;
36663;SDS011;53333;51.976;20.144;2023-04-24T13:28:33;6.40;;;4.20;;
36663;SDS011;53333;51.976;20.144;2023-04-24T13:31:06;8.98;;;4.60;;
36663;SDS011;53333;51.976;20.144;2023-04-24T13:33:40;8.32;;;4.50;;
36663;SDS011;53333;51.976;20.144;2023-04-24T13:36:14;7.15;;;4.55;;
36663;SDS011;53333;51.976;20.144;2023-04-24T13:38:48;9.30;;;4.47;;
36663;SDS011;53333;51.976;20.144;2023-04-24T13:41:21;7.50;;;4.93;;
36663;SDS011;53333;51.976;20.144;2023-04-24T13:43:54;6.68;;;4.18;;
36663;SDS011;53333;51.976;20.144;2023-04-24T13:46:27;5.72;;;4.00;;
36663;SDS011;53333;51.976;20.144;2023-04-24T13:49:02;6.15;;;3.65;;
36663;SDS011;53333;51.976;20.144;2023-04-24T13:51:35;9.38;;;4.57;;
36663;SDS011;53333;51.976;20.144;2023-04-24T13:54:09;4.45;;;4.05;;
36663;SDS011;53333;51.976;20.144;2023-04-24T13:56:42;6.22;;;4.15;;
36663;SDS011;53333;51.976;20.144;2023-04-24T13:59:15;8.25;;;4.20;;
36663;SDS011;53333;51.976;20.144;2023-04-24T14:01:48;6.35;;;4.30;;
36663;SDS011;53333;51.976;20.144;2023-04-24T14:04:22;4.45;;;4.05;;
36663;SDS011;53333;51.976;20.144;2023-04-24T14:06:56;9.95;;;4.32;;
36663;SDS011;53333;51.976;20.144;2023-04-24T14:09:29;7.38;;;4.22;;
36663;SDS011;53333;51.976;20.144;2023-04-24T14:12:02;6.70;;;4.32;;
36663;SDS011;53333;51.976;20.144;2023-04-24T14:14:35;6.88;;;4.28;;
36663;SDS011;53333;51.976;20.144;2023-04-24T14:17:08;7.65;;;4.95;;
36663;SDS011;53333;51.976;20.144;2023-04-24T14:19:42;11.55;;;4.38;;
36663;SDS011;53333;51.976;20.144;2023-04-24T14:22:15;8.40;;;4.18;;
36663;SDS011;53333;51.976;20.144;2023-04-24T14:24:49;7.93;;;3.47;;
36663;SDS011;53333;51.976;20.144;2023-04-24T14:27:21;6.28;;;3.45;;
36663;SDS011;53333;51.976;20.144;2023-04-24T14:29:54;5.68;;;3.55;;
36663;SDS011;53333;51.976;20.144;2023-04-24T14:35:02;7.47;;;3.60;;
36663;SDS011;53333;51.976;20.144;2023-04-24T14:37:39;4.30;;;3.90;;
36663;SDS011;53333;51.976;20.144;2023-04-24T14:40:14;8.57;;;4.47;;
36663;SDS011;53333;51.976;20.144;2023-04-24T14:42:51;6.30;;;4.15;;
36663;SDS011;53333;51.976;20.144;2023-04-24T14:45:24;8.45;;;3.90;;
36663;SDS011;53333;51.976;20.144;2023-04-24T14:47:58;4.72;;;3.53;;
36663;SDS011;53333;51.976;20.144;2023-04-24T14:50:33;9.05;;;4.28;;
36663;SDS011;53333;51.976;20.144;2023-04-24T14:53:06;5.25;;;4.10;;
36663;SDS011;53333;51.976;20.144;2023-04-24T14:55:41;7.45;;;4.80;;
36663;SDS011;53333;51.976;20.144;2023-04-24T14:58:15;6.55;;;4.25;;
36663;SDS011;53333;51.976;20.144;2023-04-24T15:00:48;9.02;;;4.60;;
36663;SDS011;53333;51.976;20.144;2023-04-24T15:03:23;4.75;;;4.15;;
36663;SDS011;53333;51.976;20.144;2023-04-24T15:05:59;6.68;;;4.18;;
36663;SDS011;53333;51.976;20.144;2023-04-24T15:08:33;10.57;;;4.32;;
36663;SDS011;53333;51.976;20.144;2023-04-24T15:11:06;7.20;;;4.15;;
36663;SDS011;53333;51.976;20.144;2023-04-24T15:16:12;8.32;;;5.00;;
36663;SDS011;53333;51.976;20.144;2023-04-24T15:18:45;7.30;;;4.50;;
36663;SDS011;53333;51.976;20.144;2023-04-24T15:21:19;7.15;;;5.05;;
36663;SDS011;53333;51.976;20.144;2023-04-24T15:23:52;8.63;;;4.50;;
36663;SDS011;53333;51.976;20.144;2023-04-24T15:26:25;7.72;;;4.15;;
36663;SDS011;53333;51.976;20.144;2023-04-24T15:28:58;7.32;;;4.43;;
36663;SDS011;53333;51.976;20.144;2023-04-24T15:31:31;7.78;;;4.50;;
36663;SDS011;53333;51.976;20.144;2023-04-24T15:34:04;9.02;;;5.25;;
36663;SDS011;53333;51.976;20.144;2023-04-24T15:36:38;5.90;;;4.43;;
36663;SDS011;53333;51.976;20.144;2023-04-24T15:39:11;6.25;;;3.85;;
36663;SDS011;53333;51.976;20.144;2023-04-24T15:41:44;7.13;;;4.55;;
36663;SDS011;53333;51.976;20.144;2023-04-24T15:44:17;9.02;;;4.32;;